createdAt,value
2022-12-20T00:00:38.525Z,12.30
2022-12-20T00:03:00.008Z,11.10
2022-12-20T00:05:14.177Z,7.80
2022-12-20T00:07:27.589Z,5.70
2022-12-20T00:09:41.006Z,2.30
2022-12-20T00:11:54.612Z,2.90
2022-12-20T00:14:08.427Z,1.40
2022-12-20T00:16:23.865Z,2.10
2022-12-20T00:18:37.660Z,1.70
2022-12-20T00:20:51.096Z,3.80
2022-12-20T00:23:04.692Z,2.00
2022-12-20T00:25:18.147Z,4.60
2022-12-20T00:27:31.473Z,1.10
2022-12-20T00:29:44.913Z,2.50
2022-12-20T00:31:58.546Z,4.60
2022-12-20T00:34:12.744Z,3.50
2022-12-20T00:36:26.789Z,1.90
2022-12-20T00:38:40.628Z,2.20
2022-12-20T00:41:02.340Z,1.90
2022-12-20T00:43:15.892Z,2.20
2022-12-20T00:45:29.215Z,2.70
2022-12-20T00:47:42.756Z,2.10
2022-12-20T00:49:56.069Z,2.60
2022-12-20T00:52:09.426Z,2.50
2022-12-20T00:54:22.800Z,2.20
2022-12-20T00:56:36.148Z,2.90
2022-12-20T00:58:49.923Z,3.50
2022-12-20T01:01:03.342Z,2.70
2022-12-20T01:03:16.732Z,3.10
2022-12-20T01:05:30.313Z,3.20
2022-12-20T01:07:43.478Z,7.30
2022-12-20T01:09:57.344Z,2.40
2022-12-20T01:12:10.891Z,2.80
2022-12-20T01:14:24.193Z,2.90
2022-12-20T01:16:39.535Z,3.40
2022-12-20T01:18:53.601Z,2.10
2022-12-20T01:21:13.926Z,4.10
2022-12-20T01:23:27.391Z,2.20
2022-12-20T01:25:40.795Z,3.10
2022-12-20T01:27:54.436Z,2.10
2022-12-20T01:30:08.477Z,3.90
2022-12-20T01:32:21.931Z,4.10
2022-12-20T01:34:35.136Z,2.30
2022-12-20T01:36:48.400Z,1.70
2022-12-20T01:39:05.591Z,5.90
2022-12-20T01:41:22.434Z,5.20
2022-12-20T01:43:53.095Z,5.30
2022-12-20T01:46:07.685Z,1.50
2022-12-20T01:48:24.937Z,2.80
2022-12-20T01:50:38.412Z,2.30
2022-12-20T01:52:53.076Z,1.80
2022-12-20T01:55:11.343Z,3.70
2022-12-20T01:57:30.833Z,3.50
2022-12-20T01:59:47.007Z,6.90
2022-12-20T02:02:02.931Z,4.10
2022-12-20T02:04:16.538Z,4.40
2022-12-20T02:06:31.500Z,6.40
2022-12-20T02:08:47.052Z,10.30
2022-12-20T02:11:15.958Z,34.60
2022-12-20T02:13:41.385Z,6.20
2022-12-20T02:15:59.120Z,6.80
2022-12-20T02:18:24.693Z,4.50
2022-12-20T02:21:08.878Z,6.70
2022-12-20T02:23:48.791Z,4.50
2022-12-20T02:26:18.934Z,3.30
2022-12-20T02:28:55.217Z,3.60
2022-12-20T02:31:13.436Z,3.70
2022-12-20T02:33:28.784Z,3.20
2022-12-20T02:35:43.928Z,3.20
2022-12-20T02:38:00.079Z,2.90
2022-12-20T02:40:15.430Z,4.00
2022-12-20T02:42:30.601Z,3.20
2022-12-20T02:45:09.101Z,11.30
2022-12-20T02:47:29.951Z,7.30
2022-12-20T02:49:46.471Z,6.00
2022-12-20T02:52:04.149Z,3.00
2022-12-20T02:54:18.978Z,2.00
2022-12-20T02:56:36.978Z,1.20
2022-12-20T02:58:55.798Z,2.20
2022-12-20T03:01:14.030Z,2.00
2022-12-20T03:03:27.819Z,1.50
2022-12-20T03:05:48.811Z,0.90
2022-12-20T03:10:16.640Z,1.20
2022-12-20T03:12:30.056Z,6.90
2022-12-20T03:14:43.677Z,26.70
2022-12-20T03:16:58.844Z,36.90
2022-12-20T03:19:12.491Z,16.00
2022-12-20T03:21:26.024Z,4.00
2022-12-20T03:23:39.598Z,4.30
2022-12-20T03:25:53.301Z,1.40
2022-12-20T03:28:17.990Z,12.00
2022-12-20T03:30:31.453Z,15.10
2022-12-20T03:32:44.854Z,2.30
2022-12-20T03:34:58.365Z,4.00
2022-12-20T03:37:17.569Z,6.20
2022-12-20T03:39:30.843Z,1.00
2022-12-20T03:41:44.351Z,1.70
2022-12-20T03:43:59.259Z,4.40
2022-12-20T03:46:13.468Z,27.00
2022-12-20T03:48:26.805Z,18.00
2022-12-20T03:50:40.448Z,5.70
2022-12-20T03:52:54.652Z,6.40
2022-12-20T03:55:08.682Z,2.80
2022-12-20T03:57:25.919Z,2.80
2022-12-20T03:59:41.814Z,1.30
2022-12-20T04:01:55.567Z,1.10
2022-12-20T04:04:09.559Z,0.70
2022-12-20T04:06:23.323Z,0.80
2022-12-20T04:08:37.089Z,2.80
2022-12-20T04:11:07.201Z,2.70
2022-12-20T04:13:21.295Z,4.00
2022-12-20T04:15:34.815Z,2.10
2022-12-20T04:17:48.517Z,2.30
2022-12-20T04:20:20.058Z,4.70
2022-12-20T04:23:00.600Z,1.70
2022-12-20T04:25:14.446Z,2.00
2022-12-20T04:27:28.604Z,2.50
2022-12-20T04:29:42.546Z,0.90
2022-12-20T04:31:56.824Z,0.60
2022-12-20T04:34:10.843Z,0.60
2022-12-20T04:36:24.554Z,2.20
2022-12-20T04:38:38.449Z,6.70
2022-12-20T04:40:54.179Z,4.10
2022-12-20T04:43:07.591Z,12.90
2022-12-20T04:45:21.422Z,4.30
2022-12-20T04:47:35.163Z,6.30
2022-12-20T04:49:48.847Z,1.60
2022-12-20T04:52:22.172Z,1.60
2022-12-20T04:54:36.025Z,0.90
2022-12-20T04:56:59.388Z,0.50
2022-12-20T04:59:12.802Z,2.20
2022-12-20T05:01:28.682Z,0.90
2022-12-20T05:03:42.387Z,2.60
2022-12-20T05:05:56.433Z,0.60
2022-12-20T05:08:10.730Z,0.90
2022-12-20T05:10:24.200Z,1.00
2022-12-20T05:12:38.327Z,1.10
2022-12-20T05:14:52.438Z,1.20
2022-12-20T05:17:06.687Z,0.80
2022-12-20T05:19:20.236Z,1.30
2022-12-20T05:21:49.200Z,1.40
2022-12-20T05:24:19.127Z,0.70
2022-12-20T05:26:58.432Z,0.70
2022-12-20T05:29:12.484Z,1.00
2022-12-20T05:31:25.978Z,0.70
2022-12-20T05:33:39.451Z,1.10
2022-12-20T05:35:53.978Z,0.80
2022-12-20T05:38:07.449Z,1.70
2022-12-20T05:40:21.929Z,1.70
2022-12-20T05:42:35.557Z,2.00
2022-12-20T05:44:48.973Z,2.30
2022-12-20T05:47:02.311Z,4.20
2022-12-20T05:49:16.804Z,1.50
2022-12-20T05:51:30.715Z,0.90
2022-12-20T05:53:48.421Z,1.40
2022-12-20T05:56:04.465Z,2.80
2022-12-20T05:58:20.611Z,1.90
2022-12-20T06:00:40.486Z,2.00
2022-12-20T06:02:54.357Z,1.60
2022-12-20T06:05:08.547Z,1.30
2022-12-20T06:07:22.733Z,1.00
2022-12-20T06:09:40.292Z,1.30
2022-12-20T06:11:59.462Z,1.50
2022-12-20T06:14:13.774Z,1.00
2022-12-20T06:16:31.779Z,3.00
2022-12-20T06:18:45.343Z,0.80
2022-12-20T06:21:00.038Z,2.20
2022-12-20T06:23:14.120Z,2.10
2022-12-20T06:25:35.248Z,3.90
2022-12-20T06:27:48.595Z,0.90
2022-12-20T06:30:02.489Z,1.30
2022-12-20T06:32:24.037Z,1.30
2022-12-20T06:34:39.617Z,1.50
2022-12-20T06:36:52.956Z,3.30
2022-12-20T06:39:10.893Z,1.00
2022-12-20T06:41:32.249Z,0.50
2022-12-20T06:43:45.586Z,0.70
2022-12-20T06:45:59.228Z,1.00
2022-12-20T06:48:12.871Z,2.10
2022-12-20T06:50:28.195Z,0.50
2022-12-20T06:52:42.179Z,1.00
2022-12-20T06:54:56.799Z,0.80
2022-12-20T06:57:10.665Z,0.70
2022-12-20T06:59:27.222Z,1.00
2022-12-20T07:01:40.782Z,0.90
2022-12-20T07:03:54.538Z,1.70
2022-12-20T07:06:08.099Z,1.90
2022-12-20T07:08:21.483Z,1.00
2022-12-20T07:10:35.117Z,3.60
2022-12-20T07:12:48.751Z,1.60
2022-12-20T07:15:02.231Z,4.60
2022-12-20T07:17:15.628Z,1.90
2022-12-20T07:19:29.176Z,2.00
2022-12-20T07:21:42.377Z,1.10
2022-12-20T07:23:55.961Z,2.20
2022-12-20T07:26:09.363Z,1.30
2022-12-20T07:28:23.118Z,4.20
2022-12-20T07:30:36.392Z,2.40
2022-12-20T07:32:50.150Z,1.70
2022-12-20T07:35:04.108Z,2.20
2022-12-20T07:37:17.371Z,0.80
2022-12-20T07:39:30.647Z,2.00
2022-12-20T07:41:43.970Z,1.60
2022-12-20T07:44:02.185Z,2.80
2022-12-20T07:46:17.001Z,1.70
2022-12-20T07:48:30.315Z,3.50
2022-12-20T07:50:44.673Z,1.40
2022-12-20T07:52:58.280Z,3.10
2022-12-20T07:55:14.206Z,2.70
2022-12-20T07:57:31.669Z,1.30
2022-12-20T07:59:48.536Z,1.00
2022-12-20T08:02:04.963Z,0.80
2022-12-20T08:04:22.183Z,2.70
2022-12-20T08:06:36.374Z,2.40
2022-12-20T08:08:54.488Z,5.10
2022-12-20T08:11:10.630Z,1.40
2022-12-20T08:13:23.952Z,1.40
2022-12-20T08:15:37.723Z,2.40
2022-12-20T08:17:50.809Z,1.10
2022-12-20T08:20:04.000Z,4.90
2022-12-20T08:22:17.190Z,1.80
2022-12-20T08:24:30.590Z,4.90
2022-12-20T08:26:45.856Z,2.50
2022-12-20T08:28:59.863Z,4.00
2022-12-20T08:31:15.798Z,3.10
2022-12-20T08:33:29.073Z,5.40
2022-12-20T08:35:42.272Z,2.70
2022-12-20T08:37:57.930Z,1.80
2022-12-20T08:40:14.415Z,4.30
2022-12-20T08:42:27.789Z,1.20
2022-12-20T08:44:42.172Z,2.10
2022-12-20T08:46:55.537Z,2.20
2022-12-20T08:49:09.183Z,5.40
2022-12-20T08:51:22.420Z,2.30
2022-12-20T08:53:36.329Z,2.90
2022-12-20T08:55:49.750Z,4.90
2022-12-20T08:58:03.017Z,2.60
2022-12-20T09:00:17.575Z,4.20
2022-12-20T09:02:30.845Z,6.10
2022-12-20T09:04:45.659Z,3.30
2022-12-20T09:06:58.632Z,3.50
2022-12-20T09:09:11.740Z,13.00
2022-12-20T09:11:27.132Z,10.80
2022-12-20T09:13:44.055Z,8.30
2022-12-20T09:15:57.717Z,13.20
2022-12-20T09:18:11.307Z,6.70
2022-12-20T09:20:24.857Z,7.10
2022-12-20T09:22:38.231Z,13.10
2022-12-20T09:24:52.152Z,7.20
2022-12-20T09:27:05.362Z,8.90
2022-12-20T09:29:25.860Z,7.80
2022-12-20T09:31:40.672Z,7.60
2022-12-20T09:33:56.796Z,5.50
2022-12-20T09:36:14.262Z,3.40
2022-12-20T09:38:27.435Z,5.10
2022-12-20T09:40:41.884Z,6.10
2022-12-20T09:42:56.190Z,2.20
2022-12-20T09:45:13.443Z,4.10
2022-12-20T09:47:28.739Z,3.90
2022-12-20T09:49:43.931Z,7.40
2022-12-20T09:52:21.398Z,6.60
2022-12-20T09:54:45.621Z,4.70
2022-12-20T09:57:08.353Z,5.20
2022-12-20T09:59:24.301Z,2.40
2022-12-20T10:01:40.421Z,5.30
2022-12-20T10:03:54.488Z,3.10
2022-12-20T10:06:18.870Z,3.10
2022-12-20T10:08:53.383Z,2.70
2022-12-20T10:11:13.668Z,4.90
2022-12-20T10:13:42.842Z,3.50
2022-12-20T10:16:01.765Z,8.40
2022-12-20T10:18:33.426Z,5.90
2022-12-20T10:20:58.117Z,2.40
2022-12-20T10:23:32.523Z,5.90
2022-12-20T10:25:47.203Z,1.80
2022-12-20T10:28:04.067Z,7.70
2022-12-20T10:30:21.347Z,3.50
2022-12-20T10:32:35.185Z,2.60
2022-12-20T10:34:55.655Z,1.80
2022-12-20T10:37:19.547Z,4.50
2022-12-20T10:39:47.038Z,2.60
2022-12-20T10:42:00.730Z,2.60
2022-12-20T10:44:27.430Z,3.50
2022-12-20T10:46:46.092Z,5.20
2022-12-20T10:48:59.698Z,3.90
2022-12-20T10:51:22.128Z,4.30
2022-12-20T10:53:36.145Z,4.60
2022-12-20T10:55:50.706Z,9.60
2022-12-20T10:58:09.762Z,2.90
2022-12-20T11:00:35.389Z,4.10
2022-12-20T11:03:05.673Z,7.10
2022-12-20T11:05:28.282Z,5.10
2022-12-20T11:07:50.430Z,9.20
2022-12-20T11:12:37.267Z,6.80
2022-12-20T11:14:52.000Z,5.50
2022-12-20T11:17:08.549Z,8.10
2022-12-20T11:19:39.943Z,11.20
2022-12-20T11:22:02.342Z,6.60
2022-12-20T11:24:25.791Z,7.40
2022-12-20T11:26:55.514Z,6.60
2022-12-20T11:29:22.597Z,5.10
2022-12-20T11:31:46.367Z,4.60
2022-12-20T11:34:14.214Z,5.00
2022-12-20T11:36:34.478Z,5.50
2022-12-20T11:39:02.814Z,8.20
2022-12-20T11:41:30.094Z,3.90
2022-12-20T11:46:52.131Z,9.00
2022-12-20T11:49:37.542Z,7.40
2022-12-20T11:51:52.615Z,7.30
2022-12-20T11:54:12.457Z,12.50
2022-12-20T11:56:30.258Z,14.70
2022-12-20T11:58:55.780Z,20.40
2022-12-20T12:01:14.065Z,12.10
2022-12-20T12:03:32.592Z,22.70
2022-12-20T12:05:49.688Z,16.80
2022-12-20T12:08:08.405Z,11.40
2022-12-20T12:10:27.421Z,12.90
2022-12-20T12:12:46.142Z,5.80
2022-12-20T12:15:11.196Z,12.20
2022-12-20T12:17:35.500Z,17.40
2022-12-20T12:19:53.454Z,11.80
2022-12-20T12:22:10.717Z,11.60
2022-12-20T12:24:29.257Z,7.60
2022-12-20T12:26:43.999Z,11.50
2022-12-20T12:29:01.485Z,14.10
2022-12-20T12:31:20.920Z,10.30
2022-12-20T12:33:39.425Z,11.70
2022-12-20T12:36:22.655Z,13.40
2022-12-20T12:39:05.367Z,17.40
2022-12-20T12:41:51.928Z,10.60
2022-12-20T12:44:11.811Z,9.20
2022-12-20T12:46:31.306Z,11.00
2022-12-20T12:48:49.899Z,14.30
2022-12-20T12:51:05.320Z,12.90
2022-12-20T12:53:24.214Z,11.70
2022-12-20T12:56:12.854Z,13.80
2022-12-20T12:58:46.541Z,10.40
2022-12-20T13:01:03.227Z,17.30
2022-12-20T13:03:38.440Z,15.70
2022-12-20T13:05:51.754Z,13.20
2022-12-20T13:08:06.279Z,14.60
2022-12-20T13:10:47.846Z,5.70
2022-12-20T13:13:16.433Z,8.30
2022-12-20T13:16:08.808Z,14.50
2022-12-20T13:18:34.857Z,11.50
2022-12-20T13:21:08.573Z,12.30
2022-12-20T13:23:22.882Z,18.90
2022-12-20T13:25:37.788Z,12.30
2022-12-20T13:28:19.710Z,11.10
2022-12-20T13:30:34.721Z,10.70
2022-12-20T13:33:26.586Z,12.50
2022-12-20T13:35:58.482Z,12.60
2022-12-20T13:38:34.062Z,9.20
2022-12-20T13:40:50.130Z,21.30
2022-12-20T13:43:07.579Z,13.80
2022-12-20T13:45:21.301Z,11.90
2022-12-20T13:47:43.878Z,12.00
2022-12-20T13:49:57.321Z,29.20
2022-12-20T13:52:42.167Z,17.80
2022-12-20T13:54:59.203Z,19.00
2022-12-20T13:57:18.575Z,17.10
2022-12-20T13:59:34.970Z,13.90
2022-12-20T14:01:57.046Z,7.40
2022-12-20T14:04:13.866Z,20.50
2022-12-20T14:06:28.875Z,25.00
2022-12-20T14:08:45.971Z,15.70
2022-12-20T14:11:10.133Z,17.70
2022-12-20T14:13:28.810Z,11.90
2022-12-20T14:15:42.267Z,16.20
2022-12-20T14:17:55.962Z,13.50
2022-12-20T14:20:20.831Z,18.20
2022-12-20T14:22:34.613Z,18.20
2022-12-20T14:24:49.628Z,15.70
2022-12-20T14:27:02.914Z,17.00
2022-12-20T14:29:20.039Z,19.20
2022-12-20T14:31:41.388Z,13.10
2022-12-20T14:33:55.061Z,15.80
2022-12-20T14:36:22.303Z,14.90
2022-12-20T14:38:37.351Z,19.60
2022-12-20T14:40:54.304Z,12.50
2022-12-20T14:43:28.376Z,14.20
2022-12-20T14:45:41.873Z,32.20
2022-12-20T14:48:05.366Z,17.60
2022-12-20T14:50:27.757Z,12.20
2022-12-20T14:52:43.770Z,11.30
2022-12-20T14:55:09.494Z,13.90
2022-12-20T14:57:30.416Z,26.90
2022-12-20T14:59:44.260Z,30.30
2022-12-20T15:01:58.206Z,14.50
2022-12-20T15:04:28.297Z,25.50
2022-12-20T15:06:49.345Z,17.50
2022-12-20T15:09:02.610Z,24.40
2022-12-20T15:11:24.611Z,21.90
2022-12-20T15:13:43.376Z,25.30
2022-12-20T15:15:56.877Z,17.30
2022-12-20T15:18:15.981Z,20.20
2022-12-20T15:20:29.314Z,19.90
2022-12-20T15:22:43.372Z,17.90
2022-12-20T15:24:56.554Z,18.50
2022-12-20T15:27:15.956Z,18.10
2022-12-20T15:29:33.192Z,20.60
2022-12-20T15:31:47.574Z,23.50
2022-12-20T15:34:03.393Z,28.60
2022-12-20T15:36:22.026Z,19.90
2022-12-20T15:38:55.262Z,24.00
2022-12-20T15:41:10.059Z,23.10
2022-12-20T15:43:26.468Z,30.30
2022-12-20T15:45:39.755Z,25.40
2022-12-20T15:47:53.015Z,29.70
2022-12-20T15:50:06.329Z,19.80
2022-12-20T15:52:25.724Z,30.60
2022-12-20T15:54:40.638Z,34.80
2022-12-20T15:56:54.173Z,28.90
2022-12-20T15:59:32.299Z,24.90
2022-12-20T16:01:44.153Z,14.10
2022-12-20T16:03:57.519Z,25.20
2022-12-20T16:06:13.857Z,24.10
2022-12-20T16:08:27.271Z,21.80
2022-12-20T16:10:41.023Z,32.50
2022-12-20T16:12:54.283Z,19.40
2022-12-20T16:15:09.216Z,30.30
2022-12-20T16:17:22.595Z,33.80
2022-12-20T16:19:38.730Z,24.00
2022-12-20T16:21:54.995Z,21.90
2022-12-20T16:24:09.009Z,28.40
2022-12-20T16:26:24.575Z,27.60
2022-12-20T16:28:38.824Z,37.00
2022-12-20T16:30:53.740Z,22.60
2022-12-20T16:33:07.893Z,24.70
2022-12-20T16:35:32.106Z,25.60
2022-12-20T16:37:45.410Z,26.50
2022-12-20T16:39:59.049Z,32.20
2022-12-20T16:42:15.896Z,27.30
2022-12-20T16:44:29.370Z,23.90
2022-12-20T16:46:42.809Z,28.80
2022-12-20T16:48:56.537Z,29.30
2022-12-20T16:51:15.905Z,19.60
2022-12-20T16:53:34.525Z,29.10
2022-12-20T16:56:02.229Z,20.90
2022-12-20T16:58:15.602Z,32.80
2022-12-20T17:00:30.834Z,38.10
2022-12-20T17:02:44.808Z,31.80
2022-12-20T17:04:58.892Z,26.20
2022-12-20T17:07:12.231Z,35.20
2022-12-20T17:09:25.574Z,32.60
2022-12-20T17:11:38.949Z,40.80
2022-12-20T17:13:54.871Z,48.00
2022-12-20T17:16:08.519Z,47.40
2022-12-20T17:18:21.971Z,43.30
2022-12-20T17:20:37.060Z,32.30
2022-12-20T17:25:30.217Z,40.60
2022-12-20T17:27:43.959Z,41.90
2022-12-20T17:29:57.333Z,31.40
2022-12-20T17:32:23.078Z,47.70
2022-12-20T17:34:37.874Z,50.20
2022-12-20T17:36:54.180Z,41.20
2022-12-20T17:39:08.716Z,42.90
2022-12-20T17:41:28.983Z,37.40
2022-12-20T17:43:42.371Z,48.60
2022-12-20T17:45:55.886Z,38.50
2022-12-20T17:48:09.947Z,37.40
2022-12-20T17:50:23.625Z,31.20
2022-12-20T17:52:37.459Z,37.60
2022-12-20T17:54:50.901Z,27.90
2022-12-20T17:57:04.209Z,37.20
2022-12-20T17:59:18.219Z,36.00
2022-12-20T18:01:33.978Z,36.30
2022-12-20T18:04:03.667Z,50.20
2022-12-20T18:06:17.944Z,42.20
2022-12-20T18:08:31.288Z,53.30
2022-12-20T18:10:44.535Z,48.40
2022-12-20T18:13:14.160Z,31.90
2022-12-20T18:15:27.459Z,43.10
2022-12-20T18:17:40.987Z,35.90
2022-12-20T18:19:57.063Z,47.60
2022-12-20T18:22:10.955Z,45.30
2022-12-20T18:24:24.863Z,48.20
2022-12-20T18:26:39.002Z,45.80
2022-12-20T18:28:53.806Z,38.00
2022-12-20T18:31:09.181Z,53.50
2022-12-20T18:33:22.375Z,38.70
2022-12-20T18:35:35.745Z,40.30
2022-12-20T18:37:49.013Z,32.90
2022-12-20T18:40:02.518Z,47.00
2022-12-20T18:42:15.840Z,38.90
2022-12-20T18:44:29.174Z,36.50
2022-12-20T18:46:42.761Z,38.40
2022-12-20T18:48:59.228Z,29.00
2022-12-20T18:51:14.576Z,29.40
2022-12-20T18:53:27.814Z,34.70
2022-12-20T18:55:43.550Z,23.40
2022-12-20T18:57:56.833Z,17.10
2022-12-20T19:00:11.431Z,19.00
2022-12-20T19:02:24.792Z,30.80
2022-12-20T19:04:38.331Z,29.40
2022-12-20T19:06:51.864Z,28.40
2022-12-20T19:09:05.378Z,23.30
2022-12-20T19:11:21.529Z,22.00
2022-12-20T19:13:34.746Z,17.20
2022-12-20T19:15:48.543Z,17.90
2022-12-20T19:18:02.309Z,18.10
2022-12-20T19:20:16.639Z,9.70
2022-12-20T19:22:29.913Z,17.50
2022-12-20T19:24:43.150Z,10.20
2022-12-20T19:26:56.454Z,15.90
2022-12-20T19:29:10.600Z,19.00
2022-12-20T19:31:26.877Z,18.10
2022-12-20T19:33:42.287Z,13.20
2022-12-20T19:35:56.512Z,12.50
2022-12-20T19:38:10.873Z,10.20
2022-12-20T19:40:24.465Z,16.90
2022-12-20T19:42:37.939Z,17.60
2022-12-20T19:44:51.390Z,16.10
2022-12-20T19:47:07.774Z,14.90
2022-12-20T19:49:21.052Z,27.70
2022-12-20T19:51:35.011Z,29.30
2022-12-20T19:53:49.285Z,24.60
2022-12-20T19:56:02.764Z,11.80
2022-12-20T19:58:16.142Z,28.70
2022-12-20T20:00:29.876Z,20.30
2022-12-20T20:02:43.428Z,23.00
2022-12-20T20:04:57.000Z,14.90
2022-12-20T20:07:10.436Z,18.70
2022-12-20T20:09:23.873Z,27.90
2022-12-20T20:11:37.616Z,17.10
2022-12-20T20:13:51.079Z,13.10
2022-12-20T20:16:06.191Z,29.40
2022-12-20T20:18:20.838Z,28.30
2022-12-20T20:20:36.039Z,11.90
2022-12-20T20:22:49.446Z,16.20
2022-12-20T20:25:02.768Z,16.30
2022-12-20T20:27:16.578Z,15.70
2022-12-20T20:29:30.076Z,24.10
2022-12-20T20:31:43.598Z,23.20
2022-12-20T20:33:58.324Z,18.70
2022-12-20T20:36:14.035Z,15.60
2022-12-20T20:38:27.560Z,15.00
2022-12-20T20:40:42.324Z,24.80
2022-12-20T20:42:55.772Z,19.00
2022-12-20T20:45:09.762Z,21.60
2022-12-20T20:47:23.665Z,21.60
2022-12-20T20:49:36.882Z,31.90
2022-12-20T20:51:50.017Z,25.40
2022-12-20T20:54:03.238Z,16.00
2022-12-20T20:56:16.825Z,19.50
2022-12-20T20:58:30.242Z,23.20
2022-12-20T21:00:43.565Z,22.60
2022-12-20T21:02:57.340Z,18.40
2022-12-20T21:07:45.048Z,21.70
2022-12-20T21:09:59.913Z,21.50
2022-12-20T21:12:13.693Z,19.60
2022-12-20T21:14:53.517Z,13.30
2022-12-20T21:17:00.524Z,20.60
2022-12-20T21:19:15.856Z,25.40
2022-12-20T21:21:30.164Z,22.10
2022-12-20T21:23:47.267Z,34.70
2022-12-20T21:26:04.249Z,34.20
2022-12-20T21:28:21.312Z,38.70
2022-12-20T21:30:35.071Z,16.80
2022-12-20T21:32:48.362Z,17.70
2022-12-20T21:35:02.678Z,22.40
2022-12-20T21:37:15.935Z,19.50
2022-12-20T21:39:33.171Z,36.00
2022-12-20T21:41:46.674Z,15.30
2022-12-20T21:44:01.432Z,12.40
2022-12-20T21:46:14.919Z,10.80
2022-12-20T21:48:30.771Z,15.40
2022-12-20T21:50:44.242Z,24.70
2022-12-20T21:52:57.976Z,18.10
2022-12-20T21:55:13.247Z,8.30
2022-12-20T21:57:26.594Z,11.00
2022-12-20T21:59:39.832Z,16.70
2022-12-20T22:01:53.808Z,11.40
2022-12-20T22:04:09.340Z,7.70
2022-12-20T22:06:22.732Z,11.70
2022-12-20T22:08:37.237Z,13.90
2022-12-20T22:10:51.029Z,9.20
2022-12-20T22:13:04.297Z,9.00
2022-12-20T22:15:18.092Z,11.70
2022-12-20T22:17:32.400Z,5.20
2022-12-20T22:19:45.751Z,12.00
2022-12-20T22:21:59.074Z,19.80
2022-12-20T22:24:13.380Z,6.20
2022-12-20T22:26:28.341Z,7.20
2022-12-20T22:28:42.378Z,21.20
2022-12-20T22:30:56.222Z,6.80
2022-12-20T22:33:09.890Z,14.70
2022-12-20T22:35:23.431Z,15.00
2022-12-20T22:37:36.687Z,12.70
2022-12-20T22:39:50.301Z,9.00
2022-12-20T22:42:03.620Z,19.00
2022-12-20T22:44:16.905Z,20.00
2022-12-20T22:46:31.545Z,5.40
2022-12-20T22:48:45.377Z,10.90
2022-12-20T22:51:04.481Z,8.70
2022-12-20T22:53:17.821Z,10.50
2022-12-20T22:55:31.739Z,6.30
2022-12-20T22:57:44.970Z,8.10
2022-12-20T23:00:00.052Z,4.50
2022-12-20T23:02:13.382Z,7.10
2022-12-20T23:04:27.026Z,4.20
2022-12-20T23:06:40.252Z,9.70
2022-12-20T23:08:53.600Z,5.60
2022-12-20T23:11:24.674Z,6.80
2022-12-20T23:13:54.115Z,7.50
2022-12-20T23:16:07.584Z,7.70
2022-12-20T23:18:20.914Z,12.50
2022-12-20T23:20:50.462Z,9.00
2022-12-20T23:23:03.730Z,8.80
2022-12-20T23:25:19.283Z,7.80
2022-12-20T23:27:33.235Z,6.80
2022-12-20T23:29:46.496Z,7.60
2022-12-20T23:32:00.029Z,16.20
2022-12-20T23:34:13.466Z,6.00
2022-12-20T23:36:26.776Z,11.70
2022-12-20T23:38:41.045Z,14.30
2022-12-20T23:40:54.297Z,9.60
2022-12-20T23:43:07.483Z,7.60
2022-12-20T23:45:20.916Z,17.10
2022-12-20T23:47:34.275Z,13.00
2022-12-20T23:49:47.503Z,9.50
2022-12-20T23:52:00.707Z,4.20
2022-12-20T23:54:15.067Z,4.70
2022-12-20T23:56:30.095Z,5.70
2022-12-20T23:58:43.515Z,7.60
